createdAt,value
2022-11-06T00:01:57.468Z,81.49
2022-11-06T00:04:25.221Z,80.39
2022-11-06T00:06:51.819Z,82.04
2022-11-06T00:09:20.967Z,80.92
2022-11-06T00:11:50.129Z,80.46
2022-11-06T00:14:18.656Z,80.70
2022-11-06T00:16:48.530Z,83.12
2022-11-06T00:19:18.219Z,81.88
2022-11-06T00:21:46.336Z,83.14
2022-11-06T00:24:15.519Z,82.92
2022-11-06T00:26:43.838Z,82.64
2022-11-06T00:29:15.084Z,82.70
2022-11-06T00:31:42.924Z,82.89
2022-11-06T00:34:11.157Z,83.55
2022-11-06T00:36:40.141Z,82.82
2022-11-06T00:39:08.157Z,81.05
2022-11-06T00:41:35.729Z,84.25
2022-11-06T00:44:04.008Z,84.00
2022-11-06T00:46:31.778Z,83.10
2022-11-06T00:48:59.450Z,84.45
2022-11-06T00:51:29.079Z,83.98
2022-11-06T00:53:59.341Z,83.83
2022-11-06T00:56:28.222Z,84.59
2022-11-06T00:58:56.324Z,84.66
2022-11-06T01:01:26.703Z,85.36
2022-11-06T01:03:56.472Z,87.24
2022-11-06T01:06:25.931Z,86.81
2022-11-06T01:08:53.938Z,85.97
2022-11-06T01:11:24.960Z,85.90
2022-11-06T01:13:54.250Z,87.22
2022-11-06T01:16:22.907Z,86.92
2022-11-06T01:18:50.554Z,86.54
2022-11-06T01:21:20.258Z,85.75
2022-11-06T01:23:48.881Z,86.44
2022-11-06T01:26:28.790Z,84.80
2022-11-06T01:29:06.927Z,85.16
2022-11-06T01:31:36.254Z,86.17
2022-11-06T01:34:04.903Z,85.56
2022-11-06T01:36:33.364Z,84.36
2022-11-06T01:39:07.717Z,82.84
2022-11-06T01:41:37.979Z,82.95
2022-11-06T01:44:27.921Z,84.79
2022-11-06T01:46:56.857Z,83.91
2022-11-06T01:49:24.815Z,85.89
2022-11-06T01:51:55.977Z,85.47
2022-11-06T01:54:26.479Z,85.83
2022-11-06T01:56:58.413Z,86.44
2022-11-06T01:59:28.968Z,83.97
2022-11-06T02:01:58.097Z,85.18
2022-11-06T02:04:28.028Z,84.21
2022-11-06T02:06:57.686Z,85.37
2022-11-06T02:09:26.409Z,84.85
2022-11-06T02:11:59.845Z,85.87
2022-11-06T02:14:48.770Z,83.85
2022-11-06T02:17:28.645Z,84.04
2022-11-06T02:20:04.366Z,86.62
2022-11-06T02:22:52.739Z,84.93
2022-11-06T02:25:32.295Z,85.79
2022-11-06T02:28:04.587Z,85.23
2022-11-06T02:30:35.813Z,84.72
2022-11-06T02:33:08.049Z,85.15
2022-11-06T02:35:40.456Z,85.54
2022-11-06T02:38:11.152Z,84.97
2022-11-06T02:40:44.130Z,83.36
2022-11-06T02:43:15.454Z,85.56
2022-11-06T02:45:52.129Z,84.48
2022-11-06T02:48:25.132Z,84.08
2022-11-06T02:50:55.648Z,84.97
2022-11-06T02:53:27.038Z,84.22
2022-11-06T02:55:58.747Z,85.49
2022-11-06T02:58:33.109Z,86.39
2022-11-06T03:01:06.156Z,86.11
2022-11-06T03:03:37.294Z,85.52
2022-11-06T03:06:10.736Z,85.19
2022-11-06T03:08:43.227Z,85.39
2022-11-06T03:11:17.391Z,84.49
2022-11-06T03:13:55.268Z,84.96
2022-11-06T03:16:30.470Z,84.05
2022-11-06T03:19:03.396Z,85.95
2022-11-06T03:21:37.275Z,83.26
2022-11-06T03:24:12.153Z,83.73
2022-11-06T03:26:44.634Z,84.93
2022-11-06T03:29:18.548Z,83.89
2022-11-06T03:31:51.625Z,85.00
2022-11-06T03:34:28.781Z,84.33
2022-11-06T03:37:02.286Z,83.42
2022-11-06T03:39:33.359Z,82.32
2022-11-06T03:42:06.279Z,84.13
2022-11-06T03:44:39.954Z,85.20
2022-11-06T03:47:12.490Z,84.54
2022-11-06T03:49:44.299Z,83.33
2022-11-06T03:52:17.422Z,83.47
2022-11-06T03:54:50.244Z,83.43
2022-11-06T03:57:23.668Z,82.12
2022-11-06T03:59:58.449Z,81.71
2022-11-06T04:02:30.800Z,83.51
2022-11-06T04:05:01.273Z,86.08
2022-11-06T04:07:34.629Z,87.78
2022-11-06T04:10:23.979Z,89.98
2022-11-06T04:13:11.402Z,88.71
2022-11-06T04:15:45.140Z,89.17
2022-11-06T04:18:14.117Z,89.36
2022-11-06T04:21:09.612Z,88.67
2022-11-06T04:24:12.349Z,87.22
2022-11-06T04:26:47.777Z,87.96
2022-11-06T04:29:27.788Z,89.08
2022-11-06T04:32:03.966Z,87.58
2022-11-06T04:34:38.824Z,87.52
2022-11-06T04:37:12.580Z,88.27
2022-11-06T04:39:50.010Z,89.28
2022-11-06T04:42:25.082Z,88.30
2022-11-06T04:44:58.153Z,87.38
2022-11-06T04:47:27.349Z,87.74
2022-11-06T04:50:00.065Z,87.61
2022-11-06T04:52:29.063Z,87.50
2022-11-06T04:54:59.196Z,88.50
2022-11-06T04:57:27.728Z,86.58
2022-11-06T04:59:56.849Z,86.49
2022-11-06T05:02:24.663Z,86.85
2022-11-06T05:04:53.696Z,87.57
2022-11-06T05:07:21.277Z,86.74
2022-11-06T05:09:49.005Z,87.49
2022-11-06T05:12:16.666Z,85.75
2022-11-06T05:14:44.263Z,84.23
2022-11-06T05:17:11.810Z,85.66
2022-11-06T05:19:39.449Z,85.18
2022-11-06T05:22:25.872Z,85.80
2022-11-06T05:24:53.442Z,85.50
2022-11-06T05:27:21.098Z,85.07
2022-11-06T05:29:48.731Z,85.34
2022-11-06T05:32:16.294Z,86.92
2022-11-06T05:34:45.886Z,85.69
2022-11-06T05:37:14.968Z,86.75
2022-11-06T05:39:42.562Z,84.99
2022-11-06T05:42:10.473Z,87.08
2022-11-06T05:44:38.387Z,86.94
2022-11-06T05:47:06.002Z,85.37
2022-11-06T05:49:33.674Z,86.39
2022-11-06T05:52:01.297Z,86.87
2022-11-06T05:54:30.293Z,85.61
2022-11-06T05:56:57.849Z,86.74
2022-11-06T05:59:25.487Z,85.05
2022-11-06T06:01:53.138Z,86.77
2022-11-06T06:04:20.889Z,86.84
2022-11-06T06:06:48.712Z,86.63
2022-11-06T06:09:16.266Z,85.93
2022-11-06T06:11:45.192Z,85.49
2022-11-06T06:14:12.773Z,85.10
2022-11-06T06:16:40.401Z,86.60
2022-11-06T06:19:08.249Z,85.19
2022-11-06T06:21:36.617Z,85.46
2022-11-06T06:24:04.468Z,85.70
2022-11-06T06:26:32.571Z,86.92
2022-11-06T06:29:02.100Z,86.13
2022-11-06T06:31:30.082Z,86.22
2022-11-06T06:33:57.667Z,86.55
2022-11-06T06:36:25.258Z,86.25
2022-11-06T06:38:52.840Z,85.13
2022-11-06T06:41:20.419Z,85.49
2022-11-06T06:43:49.868Z,85.56
2022-11-06T06:46:18.803Z,85.52
2022-11-06T06:48:46.491Z,85.49
2022-11-06T06:51:14.247Z,84.20
2022-11-06T06:53:41.818Z,84.85
2022-11-06T06:56:10.352Z,85.04
2022-11-06T06:58:38.122Z,83.31
2022-11-06T07:01:10.215Z,84.10
2022-11-06T07:03:40.022Z,84.07
2022-11-06T07:06:08.509Z,83.71
2022-11-06T07:08:36.108Z,84.54
2022-11-06T07:11:05.510Z,83.49
2022-11-06T07:13:36.121Z,84.65
2022-11-06T07:16:05.042Z,85.19
2022-11-06T07:18:32.682Z,84.99
2022-11-06T07:21:01.715Z,83.74
2022-11-06T07:23:29.323Z,83.88
2022-11-06T07:25:56.939Z,83.25
2022-11-06T07:28:24.530Z,81.40
2022-11-06T07:30:52.125Z,82.50
2022-11-06T07:33:19.702Z,82.24
2022-11-06T07:35:47.684Z,81.82
2022-11-06T07:38:16.779Z,81.81
2022-11-06T07:40:44.572Z,83.60
2022-11-06T07:43:14.377Z,84.00
2022-11-06T07:45:41.973Z,84.06
2022-11-06T07:48:09.664Z,82.88
2022-11-06T07:50:37.286Z,83.08
2022-11-06T07:53:05.210Z,81.74
2022-11-06T07:55:39.203Z,82.70
2022-11-06T07:58:09.547Z,81.13
2022-11-06T08:00:37.178Z,80.61
2022-11-06T08:03:04.910Z,81.78
2022-11-06T08:05:32.481Z,80.38
2022-11-06T08:08:00.060Z,76.17
2022-11-06T08:10:27.804Z,76.48
2022-11-06T08:12:56.801Z,72.83
2022-11-06T08:15:24.514Z,67.60
2022-11-06T08:17:52.118Z,67.04
2022-11-06T08:20:19.766Z,66.97
2022-11-06T08:22:47.357Z,65.58
2022-11-06T08:25:14.969Z,67.54
2022-11-06T08:27:42.546Z,61.71
2022-11-06T08:30:13.335Z,65.60
2022-11-06T08:32:40.923Z,70.81
2022-11-06T08:35:09.572Z,71.84
2022-11-06T08:37:37.444Z,73.21
2022-11-06T08:40:05.793Z,74.26
2022-11-06T08:42:33.410Z,77.57
2022-11-06T08:45:00.982Z,76.47
2022-11-06T08:47:29.903Z,74.62
2022-11-06T08:49:57.494Z,74.43
2022-11-06T08:52:28.716Z,73.32
2022-11-06T08:54:58.841Z,75.83
2022-11-06T08:57:26.613Z,75.29
2022-11-06T08:59:54.376Z,72.70
2022-11-06T09:02:22.048Z,73.13
2022-11-06T09:04:51.028Z,76.00
2022-11-06T09:07:18.610Z,74.98
2022-11-06T09:09:46.201Z,76.64
2022-11-06T09:12:13.826Z,75.27
2022-11-06T09:14:41.438Z,76.80
2022-11-06T09:17:09.045Z,75.94
2022-11-06T09:19:36.654Z,75.69
2022-11-06T09:22:05.660Z,77.09
2022-11-06T09:25:01.277Z,76.36
2022-11-06T09:27:20.816Z,78.97
2022-11-06T09:29:49.064Z,77.65
2022-11-06T09:32:16.670Z,77.80
2022-11-06T09:34:44.274Z,77.10
2022-11-06T09:37:13.240Z,74.72
2022-11-06T09:39:40.810Z,74.99
2022-11-06T09:42:18.867Z,77.13
2022-11-06T09:45:02.315Z,76.54
2022-11-06T09:47:36.624Z,77.29
2022-11-06T09:50:07.637Z,76.99
2022-11-06T09:52:41.686Z,77.63
2022-11-06T09:55:17.156Z,78.09
2022-11-06T09:57:49.216Z,77.76
2022-11-06T10:00:18.277Z,78.00
2022-11-06T10:02:49.399Z,76.41
2022-11-06T10:05:26.322Z,75.50
2022-11-06T10:07:57.904Z,75.69
2022-11-06T10:10:31.800Z,76.35
2022-11-06T10:13:17.268Z,77.58
2022-11-06T10:15:52.301Z,75.09
2022-11-06T10:18:30.365Z,75.63
2022-11-06T10:21:09.515Z,77.75
2022-11-06T10:23:46.298Z,76.35
2022-11-06T10:26:17.831Z,77.03
2022-11-06T10:29:08.549Z,78.79
2022-11-06T10:31:45.467Z,78.18
2022-11-06T10:34:17.052Z,77.29
2022-11-06T10:36:50.253Z,76.85
2022-11-06T10:39:22.716Z,75.80
2022-11-06T10:41:53.562Z,74.47
2022-11-06T10:44:26.166Z,75.08
2022-11-06T10:46:56.770Z,76.24
2022-11-06T10:49:33.005Z,76.21
2022-11-06T10:52:18.940Z,74.41
2022-11-06T10:55:00.997Z,75.36
2022-11-06T10:57:37.899Z,76.24
2022-11-06T11:00:06.494Z,75.86
2022-11-06T11:02:38.109Z,76.64
2022-11-06T11:05:14.042Z,74.79
2022-11-06T11:07:43.895Z,76.05
2022-11-06T11:10:30.625Z,75.83
2022-11-06T11:13:04.120Z,75.59
2022-11-06T11:15:43.324Z,76.13
2022-11-06T11:18:18.928Z,74.07
2022-11-06T11:20:48.271Z,73.25
2022-11-06T11:23:19.518Z,73.62
2022-11-06T11:25:50.306Z,73.75
2022-11-06T11:28:29.819Z,73.82
2022-11-06T11:31:06.507Z,73.79
2022-11-06T11:33:34.922Z,72.45
2022-11-06T11:36:04.669Z,73.49
2022-11-06T11:38:32.276Z,73.16
2022-11-06T11:41:09.024Z,74.99
2022-11-06T11:43:36.743Z,73.94
2022-11-06T11:46:13.175Z,73.84
2022-11-06T11:48:46.207Z,73.12
2022-11-06T11:51:31.708Z,74.86
2022-11-06T11:54:04.591Z,75.23
2022-11-06T11:57:03.151Z,73.86
2022-11-06T11:59:24.921Z,72.39
2022-11-06T12:01:54.014Z,73.06
2022-11-06T12:04:28.373Z,73.46
2022-11-06T12:06:59.508Z,73.19
2022-11-06T12:09:29.094Z,73.98
2022-11-06T12:12:00.972Z,73.44
2022-11-06T12:14:34.826Z,72.32
2022-11-06T12:17:10.734Z,73.09
2022-11-06T12:19:41.030Z,73.03
2022-11-06T12:22:16.683Z,72.31
2022-11-06T12:24:50.791Z,71.71
2022-11-06T12:27:24.352Z,71.71
2022-11-06T12:29:58.530Z,70.51
2022-11-06T12:32:40.724Z,69.85
2022-11-06T12:35:19.341Z,73.06
2022-11-06T12:37:56.305Z,72.96
2022-11-06T12:40:29.584Z,72.70
2022-11-06T12:43:11.577Z,72.56
2022-11-06T12:45:52.913Z,72.23
2022-11-06T12:48:34.842Z,69.54
2022-11-06T12:51:13.068Z,71.36
2022-11-06T12:53:52.959Z,71.35
2022-11-06T12:56:27.519Z,71.44
2022-11-06T12:59:13.146Z,71.41
2022-11-06T13:01:52.894Z,70.95
2022-11-06T13:04:31.314Z,69.89
2022-11-06T13:07:31.615Z,70.57
2022-11-06T13:10:10.112Z,70.97
2022-11-06T13:12:45.359Z,70.88
2022-11-06T13:15:26.206Z,71.25
2022-11-06T13:17:58.343Z,70.17
2022-11-06T13:20:34.276Z,68.61
2022-11-06T13:23:07.152Z,71.30
2022-11-06T13:25:44.303Z,72.20
2022-11-06T13:28:26.127Z,71.21
2022-11-06T13:30:57.850Z,70.14
2022-11-06T13:33:28.263Z,70.09
2022-11-06T13:35:56.432Z,70.53
2022-11-06T13:38:29.511Z,70.38
2022-11-06T13:41:03.824Z,68.56
2022-11-06T13:43:36.847Z,69.65
2022-11-06T13:46:15.883Z,70.54
2022-11-06T13:48:54.131Z,69.18
2022-11-06T13:51:27.427Z,71.45
2022-11-06T13:54:04.170Z,69.32
2022-11-06T13:56:48.895Z,70.56
2022-11-06T13:59:35.020Z,71.65
2022-11-06T14:02:24.168Z,73.00
2022-11-06T14:05:14.787Z,72.92
2022-11-06T14:07:43.348Z,72.41
2022-11-06T14:10:19.925Z,72.56
2022-11-06T14:12:48.554Z,71.89
2022-11-06T14:15:29.242Z,72.16
2022-11-06T14:18:00.589Z,72.40
2022-11-06T14:20:32.539Z,71.36
2022-11-06T14:23:37.930Z,72.07
2022-11-06T14:26:10.243Z,73.79
2022-11-06T14:28:39.456Z,73.45
2022-11-06T14:31:13.978Z,72.68
2022-11-06T14:34:03.207Z,72.84
2022-11-06T14:36:36.414Z,72.71
2022-11-06T14:39:04.933Z,73.27
2022-11-06T14:41:57.933Z,72.94
2022-11-06T14:44:40.998Z,72.27
2022-11-06T14:47:10.293Z,71.81
2022-11-06T14:49:43.715Z,72.93
2022-11-06T14:52:15.664Z,73.01
2022-11-06T14:54:53.281Z,74.33
2022-11-06T14:57:40.235Z,73.54
2022-11-06T15:00:09.450Z,72.40
2022-11-06T15:02:38.361Z,72.71
2022-11-06T15:05:14.369Z,71.98
2022-11-06T15:08:15.676Z,71.82
2022-11-06T15:10:54.984Z,72.64
2022-11-06T15:13:31.577Z,74.61
2022-11-06T15:16:04.811Z,75.25
2022-11-06T15:18:36.786Z,76.03
2022-11-06T15:21:11.625Z,75.57
2022-11-06T15:23:49.740Z,75.93
2022-11-06T15:26:24.822Z,76.01
2022-11-06T15:29:07.864Z,76.67
2022-11-06T15:31:35.546Z,76.75
2022-11-06T15:34:06.767Z,75.60
2022-11-06T15:36:40.729Z,75.83
2022-11-06T15:39:32.544Z,75.29
2022-11-06T15:42:00.879Z,75.81
2022-11-06T15:44:28.689Z,74.07
2022-11-06T15:46:57.966Z,73.26
2022-11-06T15:49:26.730Z,73.23
2022-11-06T15:51:58.013Z,73.72
2022-11-06T15:54:37.465Z,72.99
2022-11-06T15:57:14.577Z,72.46
2022-11-06T15:59:42.216Z,73.32
2022-11-06T16:02:17.024Z,73.30
2022-11-06T16:04:45.525Z,73.70
2022-11-06T16:07:15.937Z,73.02
2022-11-06T16:09:44.078Z,72.09
2022-11-06T16:12:13.728Z,71.52
2022-11-06T16:14:44.161Z,70.76
2022-11-06T16:17:17.416Z,70.64
2022-11-06T16:19:48.596Z,70.55
2022-11-06T16:22:19.136Z,70.92
2022-11-06T16:24:49.885Z,71.07
2022-11-06T16:27:17.589Z,70.74
2022-11-06T16:29:48.362Z,71.15
2022-11-06T16:32:18.949Z,71.40
2022-11-06T16:34:47.899Z,70.13
2022-11-06T16:37:37.747Z,69.55
2022-11-06T16:40:29.438Z,69.87
2022-11-06T16:43:04.346Z,70.36
2022-11-06T16:45:32.260Z,70.31
2022-11-06T16:48:25.202Z,70.29
2022-11-06T16:50:54.786Z,70.07
2022-11-06T16:53:26.378Z,69.77
2022-11-06T16:55:55.478Z,70.87
2022-11-06T16:58:24.300Z,69.86
2022-11-06T17:01:00.862Z,69.72
2022-11-06T17:03:34.932Z,70.40
2022-11-06T17:06:02.765Z,69.88
2022-11-06T17:08:35.900Z,68.93
2022-11-06T17:11:21.419Z,69.37
2022-11-06T17:13:50.287Z,69.47
2022-11-06T17:16:19.726Z,69.71
2022-11-06T17:18:47.936Z,69.73
2022-11-06T17:21:17.623Z,69.92
2022-11-06T17:23:47.688Z,68.40
2022-11-06T17:26:19.985Z,69.52
2022-11-06T17:28:47.868Z,69.00
2022-11-06T17:31:17.376Z,69.61
2022-11-06T17:33:45.749Z,69.84
2022-11-06T17:36:18.820Z,70.56
2022-11-06T17:38:49.346Z,69.47
2022-11-06T17:41:29.641Z,70.19
2022-11-06T17:43:58.234Z,69.15
2022-11-06T17:46:27.261Z,68.54
2022-11-06T17:48:55.395Z,70.51
2022-11-06T17:51:40.706Z,70.86
2022-11-06T17:54:10.076Z,71.05
2022-11-06T17:56:38.437Z,71.89
2022-11-06T17:59:06.277Z,72.48
2022-11-06T18:01:33.991Z,72.25
2022-11-06T18:04:01.926Z,71.44
2022-11-06T18:06:29.632Z,71.90
2022-11-06T18:08:57.987Z,70.91
2022-11-06T18:11:27.811Z,72.74
2022-11-06T18:13:56.501Z,72.33
2022-11-06T18:16:27.262Z,72.57
2022-11-06T18:18:55.972Z,72.12
2022-11-06T18:21:23.945Z,71.22
2022-11-06T18:23:51.754Z,72.40
2022-11-06T18:26:21.422Z,71.33
2022-11-06T18:28:50.396Z,71.99
2022-11-06T18:31:18.714Z,72.08
2022-11-06T18:33:46.710Z,70.75
2022-11-06T18:36:15.492Z,70.31
2022-11-06T18:38:43.953Z,72.23
2022-11-06T18:41:13.162Z,71.08
2022-11-06T18:43:41.306Z,71.29
2022-11-06T18:46:12.348Z,72.19
2022-11-06T18:48:40.237Z,71.60
2022-11-06T18:51:08.166Z,70.60
2022-11-06T18:53:35.785Z,70.93
2022-11-06T18:56:03.783Z,70.89
2022-11-06T18:58:31.468Z,68.76
2022-11-06T19:01:01.929Z,69.51
2022-11-06T19:03:31.056Z,70.03
2022-11-06T19:05:58.639Z,70.83
2022-11-06T19:08:26.421Z,68.79
2022-11-06T19:10:54.094Z,69.41
2022-11-06T19:13:21.848Z,69.92
2022-11-06T19:15:49.455Z,69.48
2022-11-06T19:18:17.288Z,69.24
2022-11-06T19:20:46.452Z,68.97
2022-11-06T19:23:15.919Z,68.52
2022-11-06T19:25:45.765Z,69.08
2022-11-06T19:28:13.759Z,68.58
2022-11-06T19:30:41.469Z,68.04
2022-11-06T19:33:09.108Z,66.58
2022-11-06T19:35:36.784Z,68.93
2022-11-06T19:38:05.725Z,68.93
2022-11-06T19:40:33.919Z,67.62
2022-11-06T19:43:03.802Z,66.39
2022-11-06T19:45:31.406Z,66.86
2022-11-06T19:48:00.428Z,67.12
2022-11-06T19:50:53.625Z,67.47
2022-11-06T19:53:21.484Z,67.43
2022-11-06T19:55:49.334Z,66.94
2022-11-06T19:58:18.282Z,68.17
2022-11-06T20:00:47.935Z,67.99
2022-11-06T20:03:16.634Z,66.82
2022-11-06T20:05:44.648Z,66.41
2022-11-06T20:08:12.376Z,67.13
2022-11-06T20:10:42.128Z,65.73
2022-11-06T20:13:09.763Z,66.67
2022-11-06T20:15:37.786Z,66.70
2022-11-06T20:18:05.813Z,66.27
2022-11-06T20:20:36.472Z,65.47
2022-11-06T20:23:04.835Z,65.77
2022-11-06T20:25:32.396Z,67.63
2022-11-06T20:28:01.355Z,67.07
2022-11-06T20:30:28.949Z,68.32
2022-11-06T20:32:56.532Z,68.74
2022-11-06T20:35:24.122Z,68.99
2022-11-06T20:37:51.693Z,71.16
2022-11-06T20:40:19.403Z,72.00
2022-11-06T20:42:47.130Z,74.71
2022-11-06T20:45:16.059Z,76.27
2022-11-06T20:47:43.626Z,78.39
2022-11-06T20:50:11.575Z,78.92
2022-11-06T20:52:39.158Z,79.00
2022-11-06T20:55:07.262Z,81.93
2022-11-06T20:57:35.005Z,82.43
2022-11-06T21:00:02.640Z,82.95
2022-11-06T21:02:31.715Z,85.45
2022-11-06T21:04:59.356Z,86.14
2022-11-06T21:07:26.948Z,89.40
2022-11-06T21:09:54.525Z,89.21
2022-11-06T21:12:22.097Z,88.56
2022-11-06T21:14:50.000Z,87.80
2022-11-06T21:17:17.594Z,89.19
2022-11-06T21:19:46.566Z,88.77
2022-11-06T21:22:14.229Z,89.40
2022-11-06T21:24:41.936Z,88.50
2022-11-06T21:27:10.733Z,89.15
2022-11-06T21:29:38.313Z,86.89
2022-11-06T21:32:06.380Z,87.70
2022-11-06T21:34:33.967Z,88.37
2022-11-06T21:37:03.284Z,88.78
2022-11-06T21:39:35.768Z,89.03
2022-11-06T21:42:04.685Z,90.02
2022-11-06T21:44:32.411Z,90.49
2022-11-06T21:47:00.021Z,91.00
2022-11-06T21:49:27.621Z,90.59
2022-11-06T21:52:15.285Z,91.54
2022-11-06T21:55:01.891Z,90.00
2022-11-06T21:57:29.490Z,90.61
2022-11-06T21:59:58.166Z,91.69
2022-11-06T22:02:25.843Z,91.42
2022-11-06T22:04:53.454Z,91.39
2022-11-06T22:07:21.014Z,90.65
2022-11-06T22:09:49.965Z,91.17
2022-11-06T22:12:17.530Z,90.93
2022-11-06T22:14:45.104Z,89.39
2022-11-06T22:17:12.694Z,89.26
2022-11-06T22:19:40.795Z,90.58
2022-11-06T22:22:08.502Z,90.71
2022-11-06T22:24:36.073Z,90.75
2022-11-06T22:27:05.166Z,91.79
2022-11-06T22:29:32.756Z,91.29
2022-11-06T22:32:00.346Z,89.65
2022-11-06T22:34:27.959Z,89.24
2022-11-06T22:36:55.559Z,89.42
2022-11-06T22:39:23.127Z,89.57
2022-11-06T22:41:50.778Z,88.25
2022-11-06T22:44:20.108Z,90.05
2022-11-06T22:46:47.886Z,88.53
2022-11-06T22:49:15.452Z,88.52
2022-11-06T22:51:43.095Z,89.59
2022-11-06T22:54:10.704Z,88.20
2022-11-06T22:56:38.292Z,87.89
2022-11-06T22:59:08.751Z,87.92
2022-11-06T23:01:42.239Z,87.62
2022-11-06T23:04:14.866Z,86.68
2022-11-06T23:06:43.255Z,87.88
2022-11-06T23:09:10.986Z,88.06
2022-11-06T23:11:38.556Z,87.09
2022-11-06T23:14:08.924Z,86.49
2022-11-06T23:16:55.794Z,86.79
2022-11-06T23:19:24.457Z,85.42
2022-11-06T23:21:52.414Z,85.32
2022-11-06T23:24:20.062Z,85.47
2022-11-06T23:26:47.628Z,84.48
2022-11-06T23:29:15.265Z,84.16
2022-11-06T23:31:44.205Z,86.07
2022-11-06T23:34:11.797Z,84.17
2022-11-06T23:36:39.377Z,83.92
2022-11-06T23:39:06.953Z,83.01
2022-11-06T23:41:46.623Z,84.74
2022-11-06T23:44:32.776Z,83.73
2022-11-06T23:47:02.345Z,82.54
2022-11-06T23:49:29.997Z,82.29
2022-11-06T23:51:57.980Z,83.70
2022-11-06T23:54:26.349Z,82.17
2022-11-06T23:56:53.992Z,82.97
2022-11-06T23:59:21.838Z,83.10
